createdAt,value
2017-05-17T00:00:21.493Z,62.87
2017-05-17T00:01:22.773Z,63.34
2017-05-17T00:02:24.035Z,63.25
2017-05-17T00:03:25.472Z,63.25
2017-05-17T00:04:26.752Z,63.06
2017-05-17T00:05:27.998Z,63.25
2017-05-17T00:06:29.277Z,63.54
2017-05-17T00:07:30.545Z,63.64
2017-05-17T00:08:31.828Z,63.92
2017-05-17T00:09:33.076Z,63.92
2017-05-17T00:10:34.325Z,63.44
2017-05-17T00:11:35.586Z,63.34
2017-05-17T00:12:36.867Z,63.44
2017-05-17T00:13:38.149Z,63.54
2017-05-17T00:14:39.442Z,64.12
2017-05-17T00:15:40.698Z,63.82
2017-05-17T00:16:42.019Z,63.54
2017-05-17T00:17:43.308Z,63.15
2017-05-17T00:18:44.595Z,63.73
2017-05-17T00:19:45.874Z,63.44
2017-05-17T00:20:47.246Z,63.41
2017-05-17T00:21:48.580Z,63.79
2017-05-17T00:22:49.822Z,64.02
2017-05-17T00:23:51.076Z,63.92
2017-05-17T00:24:52.355Z,63.92
2017-05-17T00:25:53.699Z,63.82
2017-05-17T00:26:55.029Z,63.7
2017-05-17T00:27:56.298Z,64.18
2017-05-17T00:28:57.574Z,64.28
2017-05-17T00:29:58.847Z,64.47
2017-05-17T00:31:00.142Z,64.28
2017-05-17T00:32:01.456Z,64.28
2017-05-17T00:33:02.732Z,64.37
2017-05-17T00:34:03.971Z,64.95
2017-05-17T00:35:05.240Z,64.76
2017-05-17T00:36:06.499Z,64.66
2017-05-17T00:37:07.874Z,64.76
2017-05-17T00:38:09.258Z,64.37
2017-05-17T00:39:10.677Z,64.47
2017-05-17T00:40:11.913Z,64.66
2017-05-17T00:41:13.209Z,64.95
2017-05-17T00:42:14.477Z,64.76
2017-05-17T00:43:15.809Z,64.66
2017-05-17T00:44:17.179Z,64.37
2017-05-17T00:45:18.442Z,64.56
2017-05-17T00:46:19.761Z,64.56
2017-05-17T00:47:20.984Z,64.47
2017-05-17T00:48:22.236Z,64.56
2017-05-17T00:49:23.519Z,64.28
2017-05-17T00:50:24.829Z,64.56
2017-05-17T00:51:26.106Z,65.05
2017-05-17T00:52:27.367Z,65.24
2017-05-17T00:53:28.627Z,65.14
2017-05-17T00:54:29.901Z,64.86
2017-05-17T00:55:31.231Z,64.95
2017-05-17T00:56:32.538Z,64.95
2017-05-17T00:57:33.745Z,65.05
2017-05-17T00:58:35.005Z,64.95
2017-05-17T00:59:36.286Z,64.86
2017-05-17T01:00:37.555Z,65.14
2017-05-17T01:01:38.855Z,65.14
2017-05-17T01:02:40.071Z,65.24
2017-05-17T01:03:41.328Z,65.72
2017-05-17T01:04:42.627Z,65.53
2017-05-17T01:05:43.868Z,65.33
2017-05-17T01:06:45.156Z,65.81
2017-05-17T01:07:46.398Z,65.33
2017-05-17T01:08:47.664Z,65.59
2017-05-17T01:09:48.923Z,65.59
2017-05-17T01:10:50.192Z,66.3
2017-05-17T01:11:51.475Z,66.1
2017-05-17T01:12:52.731Z,66.17
2017-05-17T01:13:54.022Z,65.91
2017-05-17T01:14:55.270Z,66.17
2017-05-17T01:15:56.531Z,66.07
2017-05-17T01:16:57.746Z,65.97
2017-05-17T01:17:58.985Z,66.17
2017-05-17T01:19:00.248Z,66.36
2017-05-17T01:20:01.506Z,66.27
2017-05-17T01:21:02.888Z,66.27
2017-05-17T01:22:04.122Z,66.55
2017-05-17T01:23:05.372Z,66.84
2017-05-17T01:24:06.613Z,66.84
2017-05-17T01:25:07.865Z,66.55
2017-05-17T01:26:09.242Z,66.84
2017-05-17T01:27:10.506Z,66.84
2017-05-17T01:28:11.813Z,66.55
2017-05-17T01:29:13.063Z,66.65
2017-05-17T01:30:14.320Z,66.74
2017-05-17T01:31:15.698Z,66.65
2017-05-17T01:32:16.953Z,66.84
2017-05-17T01:33:18.233Z,66.84
2017-05-17T01:34:19.479Z,66.55
2017-05-17T01:35:20.731Z,66.55
2017-05-17T01:36:21.989Z,67.13
2017-05-17T01:37:23.441Z,67.13
2017-05-17T01:38:24.557Z,66.74
2017-05-17T01:39:25.943Z,66.94
2017-05-17T01:40:27.231Z,66.94
2017-05-17T01:41:28.491Z,67.61
2017-05-17T01:42:29.772Z,67.03
2017-05-17T01:43:31.095Z,67.22
2017-05-17T01:44:32.343Z,67.22
2017-05-17T01:45:33.685Z,67.51
2017-05-17T01:46:34.955Z,67.03
2017-05-17T01:47:36.214Z,67.13
2017-05-17T01:48:37.496Z,67.22
2017-05-17T01:49:38.749Z,67.03
2017-05-17T01:50:40.151Z,67.22
2017-05-17T01:51:41.417Z,67.32
2017-05-17T01:52:42.682Z,67.71
2017-05-17T01:53:43.951Z,67.71
2017-05-17T01:54:45.202Z,68.09
2017-05-17T01:55:46.443Z,67.9
2017-05-17T01:56:47.749Z,68.09
2017-05-17T01:57:49.021Z,68.09
2017-05-17T01:58:50.258Z,68.29
2017-05-17T01:59:51.569Z,68.19
2017-05-17T02:00:52.846Z,67.99
2017-05-17T02:01:54.149Z,68.29
2017-05-17T02:02:55.398Z,68.06
2017-05-17T02:03:56.653Z,68.63
2017-05-17T02:04:57.932Z,68.35
2017-05-17T02:05:59.187Z,68.67
2017-05-17T02:07:00.430Z,68.15
2017-05-17T02:08:01.741Z,69.02
2017-05-17T02:09:02.996Z,69.12
2017-05-17T02:10:04.218Z,69.31
2017-05-17T02:11:05.474Z,69.21
2017-05-17T02:12:06.707Z,69.31
2017-05-17T02:13:08.018Z,69.89
2017-05-17T02:14:09.331Z,69.5
2017-05-17T02:15:10.619Z,69.5
2017-05-17T02:16:11.888Z,69.98
2017-05-17T02:17:13.165Z,69.98
2017-05-17T02:18:14.423Z,70.27
2017-05-17T02:19:15.707Z,69.89
2017-05-17T02:20:17.008Z,70.46
2017-05-17T02:21:18.281Z,70.37
2017-05-17T02:22:19.574Z,70.56
2017-05-17T02:23:20.863Z,70.37
2017-05-17T02:24:22.117Z,70.46
2017-05-17T02:25:23.367Z,70.56
2017-05-17T02:26:24.640Z,70.65
2017-05-17T02:27:26.002Z,70.84
2017-05-17T02:28:27.238Z,70.65
2017-05-17T02:29:28.529Z,71.04
2017-05-17T02:30:29.793Z,70.94
2017-05-17T02:31:31.073Z,70.65
2017-05-17T02:32:32.349Z,71.14
2017-05-17T02:33:33.627Z,71.14
2017-05-17T02:34:34.888Z,71.14
2017-05-17T02:35:36.131Z,71.33
2017-05-17T02:36:37.398Z,71.42
2017-05-17T02:37:38.768Z,71.42
2017-05-17T02:38:40.010Z,71.14
2017-05-17T02:39:41.324Z,71.04
2017-05-17T02:40:42.647Z,71.14
2017-05-17T02:41:43.949Z,71.42
2017-05-17T02:42:45.224Z,71.14
2017-05-17T02:43:46.499Z,71.14
2017-05-17T02:44:47.774Z,71.52
2017-05-17T02:45:49.079Z,71.61
2017-05-17T02:46:50.298Z,71.39
2017-05-17T02:47:51.551Z,71.61
2017-05-17T02:48:52.826Z,71.58
2017-05-17T02:49:54.079Z,71.96
2017-05-17T02:50:55.406Z,71.67
2017-05-17T02:51:56.703Z,71.77
2017-05-17T02:52:58.112Z,71.77
2017-05-17T02:53:59.355Z,72.64
2017-05-17T02:55:00.761Z,72.64
2017-05-17T02:56:02.018Z,72.92
2017-05-17T02:57:03.312Z,72.73
2017-05-17T02:58:04.576Z,72.92
2017-05-17T02:59:05.860Z,73.41
2017-05-17T03:00:07.158Z,73.6
2017-05-17T03:01:08.458Z,73.41
2017-05-17T03:02:09.739Z,73.79
2017-05-17T03:03:11.015Z,73.88
2017-05-17T03:04:12.293Z,74.08
2017-05-17T03:05:13.577Z,74.85
2017-05-17T03:06:14.867Z,74.55
2017-05-17T03:07:16.121Z,74.37
2017-05-17T03:08:17.415Z,74.55
2017-05-17T03:09:18.676Z,74.27
2017-05-17T03:10:19.946Z,74.37
2017-05-17T03:11:21.169Z,74.33
2017-05-17T03:12:22.418Z,73.98
2017-05-17T03:13:23.691Z,74.17
2017-05-17T03:14:24.966Z,73.88
2017-05-17T03:15:26.221Z,74.08
2017-05-17T03:16:27.516Z,74.08
2017-05-17T03:17:28.726Z,73.98
2017-05-17T03:18:30.090Z,73.98
2017-05-17T03:19:31.350Z,73.88
2017-05-17T03:20:32.640Z,73.88
2017-05-17T03:21:33.905Z,73.79
2017-05-17T03:22:35.206Z,74.08
2017-05-17T03:23:36.414Z,73.98
2017-05-17T03:24:37.687Z,73.98
2017-05-17T03:25:38.945Z,74.08
2017-05-17T03:26:40.204Z,73.98
2017-05-17T03:27:41.473Z,73.88
2017-05-17T03:28:42.716Z,73.85
2017-05-17T03:29:44.085Z,73.69
2017-05-17T03:30:45.434Z,73.75
2017-05-17T03:31:46.678Z,73.88
2017-05-17T03:32:47.932Z,73.98
2017-05-17T03:33:49.185Z,73.85
2017-05-17T03:34:50.444Z,74.08
2017-05-17T03:35:51.707Z,73.79
2017-05-17T03:36:53.019Z,74.08
2017-05-17T03:37:54.277Z,73.85
2017-05-17T03:38:55.589Z,73.85
2017-05-17T03:39:56.850Z,73.85
2017-05-17T03:40:58.210Z,73.85
2017-05-17T03:41:59.432Z,74.04
2017-05-17T03:43:00.707Z,74.23
2017-05-17T03:44:01.991Z,74.33
2017-05-17T03:45:03.286Z,74.23
2017-05-17T03:46:04.539Z,74.04
2017-05-17T03:47:05.806Z,74.43
2017-05-17T03:48:07.050Z,74.13
2017-05-17T03:49:08.321Z,74.04
2017-05-17T03:50:09.588Z,74.13
2017-05-17T03:51:10.901Z,73.85
2017-05-17T03:52:12.176Z,74.04
2017-05-17T03:53:13.426Z,74.13
2017-05-17T03:54:14.698Z,74.17
2017-05-17T03:55:15.935Z,73.75
2017-05-17T03:56:17.254Z,73.85
2017-05-17T03:57:18.525Z,73.94
2017-05-17T03:58:19.811Z,73.85
2017-05-17T03:59:21.067Z,73.79
2017-05-17T04:00:22.416Z,73.85
2017-05-17T04:01:23.732Z,73.85
2017-05-17T04:02:24.989Z,73.94
2017-05-17T04:03:26.260Z,74.13
2017-05-17T04:04:27.496Z,74.62
2017-05-17T04:05:28.803Z,74.62
2017-05-17T04:06:30.204Z,75.57
2017-05-17T04:07:31.453Z,75.2
2017-05-17T04:08:32.727Z,75.38
2017-05-17T04:09:34.017Z,75.57
2017-05-17T04:10:35.260Z,75.2
2017-05-17T04:11:36.511Z,74.71
2017-05-17T04:12:37.824Z,74.75
2017-05-17T04:13:39.143Z,75.38
2017-05-17T04:14:40.342Z,75.29
2017-05-17T04:15:41.615Z,75.32
2017-05-17T04:16:42.890Z,74.81
2017-05-17T04:17:44.217Z,74.9
2017-05-17T04:18:45.505Z,74.9
2017-05-17T04:19:46.760Z,74.75
2017-05-17T04:20:48.006Z,74.71
2017-05-17T04:21:49.320Z,74.65
2017-05-17T04:22:50.587Z,74.46
2017-05-17T04:23:51.846Z,74.37
2017-05-17T04:24:53.148Z,74.17
2017-05-17T04:25:54.374Z,74.17
2017-05-17T04:26:55.705Z,74.17
2017-05-17T04:27:57.092Z,74.17
2017-05-17T04:28:58.320Z,74.08
2017-05-17T04:29:59.574Z,73.5
2017-05-17T04:31:00.832Z,73.98
2017-05-17T04:32:02.216Z,74.08
2017-05-17T04:33:03.455Z,73.69
2017-05-17T04:34:04.736Z,74.08
2017-05-17T04:35:06.035Z,73.69
2017-05-17T04:36:07.311Z,73.41
2017-05-17T04:37:08.553Z,73.41
2017-05-17T04:38:09.862Z,73.31
2017-05-17T04:39:11.123Z,73.31
2017-05-17T04:40:12.392Z,73.11
2017-05-17T04:41:13.685Z,73.41
2017-05-17T04:42:14.900Z,73.31
2017-05-17T04:43:16.171Z,73.11
2017-05-17T04:44:17.619Z,73.31
2017-05-17T04:45:18.941Z,73.02
2017-05-17T04:46:20.194Z,72.34
2017-05-17T04:47:21.469Z,72.73
2017-05-17T04:48:22.720Z,72.73
2017-05-17T04:49:23.983Z,72.64
2017-05-17T04:50:25.368Z,72.73
2017-05-17T04:51:26.615Z,72.34
2017-05-17T04:52:27.868Z,72.34
2017-05-17T04:53:29.124Z,72.06
2017-05-17T04:54:30.403Z,72.09
2017-05-17T04:55:31.656Z,71.81
2017-05-17T04:56:32.936Z,71.61
2017-05-17T04:57:34.221Z,71.77
2017-05-17T04:58:35.477Z,72.09
2017-05-17T04:59:36.773Z,71.23
2017-05-17T05:00:38.011Z,71.91
2017-05-17T05:01:39.335Z,71.14
2017-05-17T05:02:40.643Z,70.56
2017-05-17T05:03:41.892Z,71.23
2017-05-17T05:04:43.129Z,71.23
2017-05-17T05:05:44.394Z,70.65
2017-05-17T05:06:45.740Z,70.65
2017-05-17T05:07:47.046Z,71.42
2017-05-17T05:08:48.261Z,70.56
2017-05-17T05:09:49.506Z,70.46
2017-05-17T05:10:50.773Z,70.56
2017-05-17T05:11:52.032Z,70.27
2017-05-17T05:12:53.504Z,70.37
2017-05-17T05:13:54.678Z,69.98
2017-05-17T05:14:55.990Z,69.98
2017-05-17T05:15:57.285Z,69.98
2017-05-17T05:16:58.517Z,70.37
2017-05-17T05:17:59.837Z,69.98
2017-05-17T05:19:01.103Z,70.37
2017-05-17T05:20:02.356Z,69.5
2017-05-17T05:21:03.602Z,69.4
2017-05-17T05:22:04.910Z,69.5
2017-05-17T05:23:06.261Z,69.21
2017-05-17T05:24:07.638Z,69.69
2017-05-17T05:25:08.901Z,69.12
2017-05-17T05:26:10.138Z,68.83
2017-05-17T05:27:11.431Z,69.12
2017-05-17T05:28:12.636Z,68.96
2017-05-17T05:29:13.923Z,68.38
2017-05-17T05:30:15.220Z,68.06
2017-05-17T05:31:16.491Z,68.09
2017-05-17T05:32:17.725Z,67.71
2017-05-17T05:33:19.013Z,67.71
2017-05-17T05:34:20.270Z,67.61
2017-05-17T05:35:21.539Z,67.03
2017-05-17T05:36:22.766Z,67.22
2017-05-17T05:37:24.094Z,67.22
2017-05-17T05:38:25.411Z,67.22
2017-05-17T05:39:26.655Z,66.94
2017-05-17T05:40:27.976Z,66.74
2017-05-17T05:41:29.192Z,66.55
2017-05-17T05:42:30.522Z,66.94
2017-05-17T05:43:31.900Z,66.27
2017-05-17T05:44:33.182Z,65.63
2017-05-17T05:45:34.417Z,66.3
2017-05-17T05:46:35.715Z,65.14
2017-05-17T05:47:36.967Z,65.72
2017-05-17T05:48:38.261Z,64.86
2017-05-17T05:49:39.569Z,64.56
2017-05-17T05:50:40.864Z,64.56
2017-05-17T05:51:42.124Z,64.56
2017-05-17T05:52:43.363Z,64.02
2017-05-17T05:53:44.638Z,63.34
2017-05-17T05:54:45.901Z,63.64
2017-05-17T05:55:47.302Z,62.96
2017-05-17T05:56:48.567Z,62.96
2017-05-17T05:57:49.818Z,63.54
2017-05-17T05:58:51.081Z,62.96
2017-05-17T05:59:52.468Z,62.51
2017-05-17T06:00:53.857Z,61.93
2017-05-17T06:01:55.106Z,61.55
2017-05-17T06:02:56.431Z,60.77
2017-05-17T06:03:57.656Z,60.68
2017-05-17T06:04:58.939Z,60.32
2017-05-17T06:06:00.205Z,60.23
2017-05-17T06:07:01.600Z,60.23
2017-05-17T06:08:02.869Z,59.58
2017-05-17T06:09:04.113Z,58.81
2017-05-17T06:10:05.354Z,57.37
2017-05-17T06:11:06.676Z,57.75
2017-05-17T06:12:08.014Z,57.94
2017-05-17T06:13:09.257Z,57.46
2017-05-17T06:14:10.540Z,56.98
2017-05-17T06:15:11.796Z,56.72
2017-05-17T06:16:13.070Z,56.62
2017-05-17T06:17:14.331Z,56.43
2017-05-17T06:18:15.589Z,55.56
2017-05-17T06:19:16.890Z,56.46
2017-05-17T06:20:18.126Z,54.82
2017-05-17T06:21:19.396Z,54.62
2017-05-17T06:22:20.662Z,54.24
2017-05-17T06:23:21.924Z,54.17
2017-05-17T06:24:23.182Z,53.88
2017-05-17T06:25:24.467Z,53.33
2017-05-17T06:26:25.950Z,52.55
2017-05-17T06:27:27.196Z,52.07
2017-05-17T06:28:28.587Z,52.36
2017-05-17T06:29:29.900Z,52.07
2017-05-17T06:30:31.168Z,52.84
2017-05-17T06:31:32.458Z,52.07
2017-05-17T06:32:33.737Z,51.71
2017-05-17T06:33:34.982Z,51.9
2017-05-17T06:34:36.361Z,51.61
2017-05-17T06:35:37.614Z,50.84
2017-05-17T06:36:38.907Z,50.84
2017-05-17T06:37:40.270Z,50.16
2017-05-17T06:38:41.570Z,50.57
2017-05-17T06:39:42.842Z,49.7
2017-05-17T06:40:44.193Z,49.99
2017-05-17T06:41:45.474Z,49.02
2017-05-17T06:42:46.825Z,48.95
2017-05-17T06:43:48.136Z,48.08
2017-05-17T06:44:49.379Z,47.79
2017-05-17T06:45:50.634Z,46.66
2017-05-17T06:46:51.955Z,46.56
2017-05-17T06:47:53.226Z,46.29
2017-05-17T06:48:54.509Z,45.73
2017-05-17T06:49:55.765Z,45.64
2017-05-17T06:50:57.029Z,44.1
2017-05-17T06:51:58.311Z,43.74
2017-05-17T06:52:59.589Z,42.21
2017-05-17T06:54:00.829Z,42.21
2017-05-17T06:55:02.155Z,40.97
2017-05-17T06:56:03.458Z,40.69
2017-05-17T06:57:04.707Z,39.82
2017-05-17T06:58:05.962Z,39.14
2017-05-17T06:59:07.237Z,39.26
2017-05-17T07:00:08.523Z,38.87
2017-05-17T07:01:09.781Z,39.06
2017-05-17T07:02:11.036Z,38.27
2017-05-17T07:03:12.304Z,38.46
2017-05-17T07:04:13.773Z,38.77
2017-05-17T07:05:14.911Z,38.6
2017-05-17T07:06:16.218Z,36.87
2017-05-17T07:07:17.479Z,36
2017-05-17T07:08:18.754Z,35.23
2017-05-17T07:09:20.026Z,34.88
2017-05-17T07:10:21.299Z,33.93
2017-05-17T07:11:22.538Z,31.82
2017-05-17T07:12:23.885Z,30.57
2017-05-17T07:13:25.147Z,29.21
2017-05-17T07:14:26.413Z,28.45
2017-05-17T07:15:27.696Z,27.61
2017-05-17T07:16:28.948Z,25.78
2017-05-17T07:17:30.210Z,24.81
2017-05-17T07:18:31.531Z,24.43
2017-05-17T07:19:32.776Z,23.93
2017-05-17T07:20:34.059Z,24.32
2017-05-17T07:21:35.346Z,24.09
2017-05-17T07:22:36.743Z,26.04
2017-05-17T07:23:38.040Z,26.23
2017-05-17T07:24:39.304Z,26.89
2017-05-17T07:25:40.592Z,26.72
2017-05-17T07:26:41.814Z,26.05
2017-05-17T07:27:43.083Z,25.29
2017-05-17T07:28:44.392Z,24.62
2017-05-17T07:29:45.784Z,23.84
2017-05-17T07:30:47.085Z,23.18
2017-05-17T07:31:48.357Z,22.78
2017-05-17T07:32:49.613Z,22.02
2017-05-17T07:33:50.886Z,22.05
2017-05-17T07:34:52.185Z,21.18
2017-05-17T07:35:53.434Z,20.32
2017-05-17T07:36:54.697Z,18.56
2017-05-17T07:37:55.959Z,17.49
2017-05-17T07:38:57.240Z,17.19
2017-05-17T07:39:58.504Z,16.41
2017-05-17T07:40:59.911Z,15.82
2017-05-17T07:42:01.317Z,15.72
2017-05-17T07:43:02.585Z,15.82
2017-05-17T07:44:03.906Z,15.22
2017-05-17T07:45:05.190Z,15.82
2017-05-17T07:46:06.486Z,15.52
2017-05-17T07:47:07.740Z,14.64
2017-05-17T07:48:09.054Z,14.07
2017-05-17T07:49:10.291Z,12.57
2017-05-17T07:50:11.562Z,13.66
2017-05-17T07:51:12.888Z,13.18
2017-05-17T07:52:14.175Z,12.86
2017-05-17T07:53:15.457Z,13.55
2017-05-17T07:54:16.713Z,13.46
2017-05-17T07:55:17.976Z,12.57
2017-05-17T07:56:19.263Z,12.87
2017-05-17T07:57:20.556Z,12.58
2017-05-17T07:58:21.903Z,12.09
2017-05-17T07:59:23.197Z,11.89
2017-05-17T08:00:24.467Z,11.6
2017-05-17T08:01:25.732Z,11.4
2017-05-17T08:02:27.021Z,11.11
2017-05-17T08:03:28.270Z,11.32
2017-05-17T08:04:29.619Z,11.4
2017-05-17T08:05:30.884Z,11.61
2017-05-17T08:06:32.139Z,11.22
2017-05-17T08:07:33.400Z,11.12
2017-05-17T08:08:34.643Z,10.83
2017-05-17T08:09:36.104Z,9.84
2017-05-17T08:10:37.391Z,10.04
2017-05-17T08:11:38.666Z,9.55
2017-05-17T08:12:39.939Z,9.56
2017-05-17T08:13:41.216Z,9.07
2017-05-17T08:14:42.568Z,8.57
2017-05-17T08:15:43.912Z,8.57
2017-05-17T08:16:45.183Z,8.87
2017-05-17T08:17:46.483Z,8.67
2017-05-17T08:18:47.755Z,8.87
2017-05-17T08:19:49.009Z,8.76
2017-05-17T08:20:50.334Z,8.87
2017-05-17T08:21:51.817Z,8.67
2017-05-17T08:22:53.114Z,8.66
2017-05-17T08:23:54.390Z,9.06
2017-05-17T08:24:55.656Z,9.16
2017-05-17T08:25:56.949Z,9.16
2017-05-17T08:26:58.234Z,8.76
2017-05-17T08:27:59.632Z,8.66
2017-05-17T08:29:00.896Z,7.87
2017-05-17T08:30:02.210Z,8.76
2017-05-17T08:31:03.443Z,8.28
2017-05-17T08:32:04.838Z,7.29
2017-05-17T08:33:06.124Z,7.78
2017-05-17T08:34:07.393Z,7.59
2017-05-17T08:35:08.681Z,7.29
2017-05-17T08:36:10.063Z,6.99
2017-05-17T08:37:11.342Z,7.29
2017-05-17T08:38:12.643Z,6.9
2017-05-17T08:39:14.771Z,6.5
2017-05-17T08:40:17.091Z,6.2
2017-05-17T08:41:19.063Z,6.59
2017-05-17T08:42:20.424Z,6.4
2017-05-17T08:43:21.680Z,6.09
2017-05-17T08:44:22.962Z,5.69
2017-05-17T08:45:24.272Z,6.29
2017-05-17T08:46:25.589Z,6.09
2017-05-17T08:47:26.879Z,6.19
2017-05-17T08:48:28.217Z,6.19
2017-05-17T08:49:29.478Z,6.1
2017-05-17T08:50:30.761Z,5.49
2017-05-17T08:51:32.022Z,5.49
2017-05-17T08:52:33.301Z,5.9
2017-05-17T08:53:34.596Z,5.6
2017-05-17T08:54:35.929Z,5.1
2017-05-17T08:55:37.185Z,5.69
2017-05-17T08:56:38.441Z,5.7
2017-05-17T08:57:39.802Z,5.4
2017-05-17T08:58:41.081Z,5.89
2017-05-17T08:59:42.364Z,5.79
2017-05-17T09:00:43.627Z,5.68
2017-05-17T09:01:44.888Z,5.79
2017-05-17T09:02:46.261Z,5.19
2017-05-17T09:03:47.566Z,5
2017-05-17T09:04:48.861Z,4.8
2017-05-17T09:05:50.150Z,5.19
2017-05-17T09:06:51.463Z,5.49
2017-05-17T09:07:52.731Z,5.89
2017-05-17T09:08:54.079Z,5.79
2017-05-17T09:09:55.490Z,5.19
2017-05-17T09:10:56.783Z,5.7
2017-05-17T09:11:58.056Z,4.6
2017-05-17T09:12:59.325Z,5.1
2017-05-17T09:14:00.710Z,4.9
2017-05-17T09:15:02.047Z,5.2
2017-05-17T09:16:03.321Z,5.1
2017-05-17T09:17:04.599Z,4.9
2017-05-17T09:18:05.843Z,4.8
2017-05-17T09:19:07.133Z,4.9
2017-05-17T09:20:08.493Z,5.1
2017-05-17T09:21:09.761Z,4.99
2017-05-17T09:22:11.051Z,5.29
2017-05-17T09:23:12.334Z,5.78
2017-05-17T09:24:13.631Z,6.18
2017-05-17T09:25:14.879Z,6.08
2017-05-17T09:26:16.168Z,6.67
2017-05-17T09:27:17.424Z,6.57
2017-05-17T09:28:18.724Z,6.98
2017-05-17T09:29:20.001Z,5.89
2017-05-17T09:30:21.575Z,5.79
2017-05-17T09:31:22.835Z,6.09
2017-05-17T09:32:24.104Z,6.19
2017-05-17T09:33:25.387Z,5.8
2017-05-17T09:34:26.680Z,4.9
2017-05-17T09:35:27.976Z,5.3
2017-05-17T09:36:29.234Z,5.1
2017-05-17T09:37:30.572Z,5.2
2017-05-17T09:38:31.850Z,5.3
2017-05-17T09:39:33.195Z,5.3
2017-05-17T09:40:34.511Z,5.69
2017-05-17T09:41:35.798Z,5.79
2017-05-17T09:42:37.085Z,6.67
2017-05-17T09:43:38.373Z,7.75
2017-05-17T09:44:39.647Z,8.15
2017-05-17T09:45:40.944Z,8.44
2017-05-17T09:46:42.242Z,8.73
2017-05-17T09:47:43.524Z,8.54
2017-05-17T09:48:44.922Z,8.25
2017-05-17T09:49:46.236Z,7.76
2017-05-17T09:50:47.479Z,7.56
2017-05-17T09:51:48.765Z,7.37
2017-05-17T09:52:50.059Z,6.38
2017-05-17T09:53:51.317Z,5.69
2017-05-17T09:54:52.686Z,6.09
2017-05-17T09:55:53.956Z,6.08
2017-05-17T09:56:55.233Z,6.18
2017-05-17T09:57:56.538Z,5.99
2017-05-17T09:58:57.928Z,5.19
2017-05-17T09:59:59.199Z,4.6
2017-05-17T10:01:00.509Z,3.91
2017-05-17T10:02:01.802Z,3.91
2017-05-17T10:03:03.102Z,3.81
2017-05-17T10:04:04.374Z,3.91
2017-05-17T10:05:05.800Z,4.31
2017-05-17T10:06:07.110Z,4.8
2017-05-17T10:07:08.379Z,4.21
2017-05-17T10:08:09.662Z,4.01
2017-05-17T10:09:10.923Z,3.81
2017-05-17T10:10:12.255Z,4.21
2017-05-17T10:11:13.539Z,4.8
2017-05-17T10:12:14.801Z,5.1
2017-05-17T10:13:16.088Z,5.2
2017-05-17T10:14:17.353Z,5.19
2017-05-17T10:15:18.684Z,5.4
2017-05-17T10:16:19.993Z,5.99
2017-05-17T10:17:21.292Z,5.9
2017-05-17T10:18:22.560Z,5.49
2017-05-17T10:19:23.848Z,5.99
2017-05-17T10:20:25.157Z,5.9
2017-05-17T10:21:26.532Z,5
2017-05-17T10:22:27.798Z,5.39
2017-05-17T10:23:29.096Z,6.77
2017-05-17T10:24:30.391Z,7.07
2017-05-17T10:25:31.642Z,7.17
2017-05-17T10:26:32.928Z,7.16
2017-05-17T10:27:34.202Z,7.26
2017-05-17T10:28:35.497Z,7.26
2017-05-17T10:29:36.792Z,7.46
2017-05-17T10:30:38.088Z,7.26
2017-05-17T10:31:39.394Z,7.75
2017-05-17T10:32:40.629Z,7.74
2017-05-17T10:33:41.939Z,8.52
2017-05-17T10:34:43.322Z,9.11
2017-05-17T10:35:44.482Z,10.27
2017-05-17T10:36:45.761Z,11.54
2017-05-17T10:37:47.043Z,12.22
2017-05-17T10:38:48.326Z,12.51
2017-05-17T10:39:49.689Z,12.51
2017-05-17T10:40:50.928Z,12.31
2017-05-17T10:41:52.226Z,13.19
2017-05-17T10:42:53.484Z,13.87
2017-05-17T10:43:54.767Z,14.26
2017-05-17T10:44:56.105Z,14.85
2017-05-17T10:45:57.346Z,15.05
2017-05-17T10:46:58.619Z,14.55
2017-05-17T10:47:59.862Z,15.23
2017-05-17T10:49:01.166Z,15.53
2017-05-17T10:50:02.450Z,15.72
2017-05-17T10:51:03.889Z,15.99
2017-05-17T10:52:05.049Z,16.19
2017-05-17T10:53:06.419Z,16.09
2017-05-17T10:54:07.702Z,16.28
2017-05-17T10:55:08.962Z,16.87
2017-05-17T10:56:10.315Z,17.55
2017-05-17T10:57:11.747Z,18.02
2017-05-17T10:58:13.125Z,17.92
2017-05-17T10:59:14.397Z,18.38
2017-05-17T11:00:15.667Z,19.65
2017-05-17T11:01:16.950Z,19.54
2017-05-17T11:02:18.256Z,20.79
2017-05-17T11:03:19.544Z,21.18
2017-05-17T11:04:20.795Z,21.28
2017-05-17T11:05:22.053Z,21.28
2017-05-17T11:06:23.321Z,21.95
2017-05-17T11:07:24.634Z,22.33
2017-05-17T11:08:25.919Z,22.62
2017-05-17T11:09:27.276Z,22.52
2017-05-17T11:10:28.546Z,22.91
2017-05-17T11:11:29.812Z,23.49
2017-05-17T11:12:31.099Z,23
2017-05-17T11:13:32.347Z,22.81
2017-05-17T11:14:33.617Z,22.81
2017-05-17T11:15:34.892Z,23.1
2017-05-17T11:16:36.147Z,23.1
2017-05-17T11:17:37.414Z,23.1
2017-05-17T11:18:38.743Z,23.77
2017-05-17T11:19:40.071Z,23.47
2017-05-17T11:20:41.361Z,23.96
2017-05-17T11:21:42.617Z,23.77
2017-05-17T11:22:43.896Z,24.26
2017-05-17T11:23:45.158Z,24.26
2017-05-17T11:24:46.421Z,24.45
2017-05-17T11:25:47.796Z,24.35
2017-05-17T11:26:49.055Z,24.45
2017-05-17T11:27:50.403Z,23.96
2017-05-17T11:28:51.587Z,24.16
2017-05-17T11:29:52.856Z,24.35
2017-05-17T11:30:54.158Z,24.55
2017-05-17T11:31:55.625Z,23.86
2017-05-17T11:32:56.781Z,24.34
2017-05-17T11:33:58.022Z,24.04
2017-05-17T11:34:59.333Z,25.1
2017-05-17T11:36:00.569Z,24.05
2017-05-17T11:37:01.877Z,24.34
2017-05-17T11:38:03.139Z,24.15
2017-05-17T11:39:04.491Z,24.34
2017-05-17T11:40:05.731Z,24.54
2017-05-17T11:41:07.035Z,24.15
2017-05-17T11:42:08.288Z,23.95
2017-05-17T11:43:09.552Z,23.85
2017-05-17T11:44:10.807Z,23.85
2017-05-17T11:45:12.113Z,23.38
2017-05-17T11:46:13.371Z,23.47
2017-05-17T11:47:14.600Z,23.47
2017-05-17T11:48:15.861Z,24.06
2017-05-17T11:49:17.144Z,23.77
2017-05-17T11:50:18.422Z,24.44
2017-05-17T11:51:19.668Z,24.63
2017-05-17T11:52:20.927Z,25.02
2017-05-17T11:53:22.221Z,25.01
2017-05-17T11:54:23.476Z,24.72
2017-05-17T11:55:24.742Z,25.4
2017-05-17T11:56:26.023Z,25.69
2017-05-17T11:57:27.341Z,25.4
2017-05-17T11:58:28.607Z,25.3
2017-05-17T11:59:29.920Z,25.59
2017-05-17T12:00:31.156Z,24.72
2017-05-17T12:01:32.436Z,25.3
2017-05-17T12:02:33.754Z,24.13
2017-05-17T12:03:35.120Z,25.51
2017-05-17T12:04:36.323Z,25.01
2017-05-17T12:05:37.596Z,24.52
2017-05-17T12:06:38.857Z,24.72
2017-05-17T12:07:40.228Z,25.41
2017-05-17T12:08:41.497Z,24.91
2017-05-17T12:09:42.770Z,25.12
2017-05-17T12:10:44.036Z,24.33
2017-05-17T12:11:45.308Z,24.91
2017-05-17T12:12:46.634Z,25.79
2017-05-17T12:13:47.904Z,25.89
2017-05-17T12:14:49.178Z,26.08
2017-05-17T12:15:50.464Z,25.69
2017-05-17T12:16:51.744Z,26.37
2017-05-17T12:17:52.975Z,26.08
2017-05-17T12:18:54.236Z,25.98
2017-05-17T12:19:55.516Z,26.37
2017-05-17T12:20:56.898Z,26.18
2017-05-17T12:21:58.191Z,26.37
2017-05-17T12:22:59.453Z,26.08
2017-05-17T12:24:00.693Z,26.37
2017-05-17T12:25:02.143Z,26.18
2017-05-17T12:26:03.484Z,25.89
2017-05-17T12:27:04.740Z,26.57
2017-05-17T12:28:06.051Z,26.08
2017-05-17T12:29:07.318Z,25.89
2017-05-17T12:30:08.603Z,26.28
2017-05-17T12:31:09.890Z,26.37
2017-05-17T12:32:11.123Z,26.18
2017-05-17T12:33:12.403Z,26.37
2017-05-17T12:34:13.666Z,26.47
2017-05-17T12:35:14.939Z,26.55
2017-05-17T12:36:16.282Z,26.76
2017-05-17T12:37:17.568Z,26.55
2017-05-17T12:38:18.858Z,27.14
2017-05-17T12:39:20.167Z,27.04
2017-05-17T12:40:21.437Z,28.02
2017-05-17T12:41:22.742Z,27.14
2017-05-17T12:42:24.115Z,26.46
2017-05-17T12:43:25.414Z,26.75
2017-05-17T12:44:26.659Z,26.84
2017-05-17T12:45:27.917Z,27.33
2017-05-17T12:46:29.187Z,27.14
2017-05-17T12:47:30.473Z,27.04
2017-05-17T12:48:31.841Z,27.33
2017-05-17T12:49:33.126Z,27.14
2017-05-17T12:50:34.387Z,27.23
2017-05-17T12:51:35.654Z,26.86
2017-05-17T12:52:36.965Z,26.65
2017-05-17T12:53:38.243Z,27.44
2017-05-17T12:54:39.695Z,26.75
2017-05-17T12:55:40.859Z,26.65
2017-05-17T12:56:42.153Z,27.14
2017-05-17T12:57:43.419Z,26.95
2017-05-17T12:58:44.697Z,27.25
2017-05-17T12:59:46.018Z,27.44
2017-05-17T13:00:47.267Z,27.15
2017-05-17T13:01:48.542Z,26.67
2017-05-17T13:02:49.793Z,26.47
2017-05-17T13:03:51.064Z,26.28
2017-05-17T13:04:52.361Z,26.57
2017-05-17T13:05:53.669Z,26.47
2017-05-17T13:06:54.907Z,26.17
2017-05-17T13:07:56.209Z,26.84
2017-05-17T13:08:57.484Z,27.43
2017-05-17T13:09:58.751Z,27.04
2017-05-17T13:11:00.052Z,27.43
2017-05-17T13:12:01.305Z,27.54
2017-05-17T13:13:02.714Z,26.76
2017-05-17T13:14:04.002Z,26.67
2017-05-17T13:15:05.279Z,27.15
2017-05-17T13:16:06.603Z,26.57